sensor_id;sensor_type;location;lat;lon;timestamp;P1;durP1;ratioP1;P2;durP2;ratioP2
80758;SDS011;70150;45.582;10.178;2023-08-31T00:01:51;1.73;;;1.17;;
80758;SDS011;70150;45.582;10.178;2023-08-31T00:09:12;2.05;;;1.25;;
80758;SDS011;70150;45.582;10.178;2023-08-31T00:11:39;2.20;;;1.20;;
80758;SDS011;70150;45.582;10.178;2023-08-31T00:14:05;3.03;;;1.20;;
80758;SDS011;70150;45.582;10.178;2023-08-31T00:16:31;2.70;;;1.10;;
80758;SDS011;70150;45.582;10.178;2023-08-31T00:18:58;4.07;;;1.10;;
80758;SDS011;70150;45.582;10.178;2023-08-31T00:21:24;2.95;;;1.23;;
80758;SDS011;70150;45.582;10.178;2023-08-31T00:23:50;2.70;;;1.40;;
80758;SDS011;70150;45.582;10.178;2023-08-31T00:26:16;4.07;;;1.05;;
80758;SDS011;70150;45.582;10.178;2023-08-31T00:28:42;3.13;;;1.00;;
80758;SDS011;70150;45.582;10.178;2023-08-31T00:31:09;7.15;;;1.23;;
80758;SDS011;70150;45.582;10.178;2023-08-31T00:33:37;2.33;;;1.10;;
80758;SDS011;70150;45.582;10.178;2023-08-31T00:36:03;4.93;;;1.05;;
80758;SDS011;70150;45.582;10.178;2023-08-31T00:38:30;3.15;;;1.10;;
80758;SDS011;70150;45.582;10.178;2023-08-31T00:40:56;1.63;;;0.90;;
80758;SDS011;70150;45.582;10.178;2023-08-31T00:43:22;3.58;;;0.95;;
80758;SDS011;70150;45.582;10.178;2023-08-31T00:45:48;3.35;;;1.02;;
80758;SDS011;70150;45.582;10.178;2023-08-31T00:48:16;2.90;;;1.20;;
80758;SDS011;70150;45.582;10.178;2023-08-31T00:50:43;1.30;;;0.88;;
80758;SDS011;70150;45.582;10.178;2023-08-31T00:53:10;4.57;;;1.10;;
80758;SDS011;70150;45.582;10.178;2023-08-31T00:55:36;1.48;;;1.00;;
80758;SDS011;70150;45.582;10.178;2023-08-31T00:58:05;2.00;;;1.10;;
80758;SDS011;70150;45.582;10.178;2023-08-31T01:00:40;2.28;;;1.05;;
80758;SDS011;70150;45.582;10.178;2023-08-31T01:03:13;3.83;;;1.30;;
80758;SDS011;70150;45.582;10.178;2023-08-31T01:10:58;3.45;;;0.95;;
80758;SDS011;70150;45.582;10.178;2023-08-31T01:13:28;3.50;;;1.00;;
80758;SDS011;70150;45.582;10.178;2023-08-31T01:15:59;1.83;;;0.90;;
80758;SDS011;70150;45.582;10.178;2023-08-31T01:18:28;1.42;;;0.90;;
80758;SDS011;70150;45.582;10.178;2023-08-31T01:23:30;3.42;;;1.08;;
80758;SDS011;70150;45.582;10.178;2023-08-31T01:26:01;3.67;;;1.10;;
80758;SDS011;70150;45.582;10.178;2023-08-31T01:28:27;4.72;;;1.08;;
80758;SDS011;70150;45.582;10.178;2023-08-31T01:30:56;3.78;;;1.23;;
80758;SDS011;70150;45.582;10.178;2023-08-31T01:33:22;2.55;;;1.05;;
80758;SDS011;70150;45.582;10.178;2023-08-31T01:35:48;2.20;;;1.20;;
80758;SDS011;70150;45.582;10.178;2023-08-31T01:38:18;5.05;;;0.93;;
80758;SDS011;70150;45.582;10.178;2023-08-31T01:40:54;3.95;;;1.10;;
80758;SDS011;70150;45.582;10.178;2023-08-31T01:43:24;1.92;;;0.95;;
80758;SDS011;70150;45.582;10.178;2023-08-31T01:45:51;3.00;;;1.23;;
80758;SDS011;70150;45.582;10.178;2023-08-31T01:48:17;1.88;;;1.00;;
80758;SDS011;70150;45.582;10.178;2023-08-31T01:50:43;2.13;;;1.10;;
80758;SDS011;70150;45.582;10.178;2023-08-31T01:53:09;3.50;;;1.10;;
80758;SDS011;70150;45.582;10.178;2023-08-31T01:55:36;2.35;;;1.13;;
80758;SDS011;70150;45.582;10.178;2023-08-31T01:58:03;2.75;;;1.10;;
80758;SDS011;70150;45.582;10.178;2023-08-31T02:00:29;2.33;;;1.10;;
80758;SDS011;70150;45.582;10.178;2023-08-31T02:02:59;3.30;;;1.00;;
80758;SDS011;70150;45.582;10.178;2023-08-31T02:05:27;1.35;;;0.90;;
80758;SDS011;70150;45.582;10.178;2023-08-31T02:07:53;2.15;;;1.02;;
80758;SDS011;70150;45.582;10.178;2023-08-31T02:10:19;2.85;;;1.10;;
80758;SDS011;70150;45.582;10.178;2023-08-31T02:12:45;2.28;;;0.90;;
80758;SDS011;70150;45.582;10.178;2023-08-31T02:15:11;4.55;;;1.08;;
80758;SDS011;70150;45.582;10.178;2023-08-31T02:17:37;3.40;;;1.27;;
80758;SDS011;70150;45.582;10.178;2023-08-31T02:20:04;3.65;;;1.30;;
80758;SDS011;70150;45.582;10.178;2023-08-31T02:22:33;2.40;;;1.17;;
80758;SDS011;70150;45.582;10.178;2023-08-31T02:25:01;2.70;;;1.20;;
80758;SDS011;70150;45.582;10.178;2023-08-31T02:27:27;4.10;;;1.27;;
80758;SDS011;70150;45.582;10.178;2023-08-31T02:29:53;4.55;;;1.33;;
80758;SDS011;70150;45.582;10.178;2023-08-31T02:32:19;3.50;;;1.30;;
80758;SDS011;70150;45.582;10.178;2023-08-31T02:34:45;2.15;;;1.20;;
80758;SDS011;70150;45.582;10.178;2023-08-31T02:37:11;3.08;;;1.30;;
80758;SDS011;70150;45.582;10.178;2023-08-31T02:39:36;4.05;;;1.40;;
80758;SDS011;70150;45.582;10.178;2023-08-31T02:42:02;2.83;;;1.13;;
80758;SDS011;70150;45.582;10.178;2023-08-31T02:44:30;4.47;;;1.50;;
80758;SDS011;70150;45.582;10.178;2023-08-31T02:46:56;3.50;;;1.20;;
80758;SDS011;70150;45.582;10.178;2023-08-31T02:49:22;2.90;;;1.30;;
80758;SDS011;70150;45.582;10.178;2023-08-31T02:51:48;5.03;;;1.40;;
80758;SDS011;70150;45.582;10.178;2023-08-31T02:54:15;3.95;;;1.00;;
80758;SDS011;70150;45.582;10.178;2023-08-31T02:56:41;2.65;;;1.08;;
80758;SDS011;70150;45.582;10.178;2023-08-31T02:59:07;2.58;;;1.00;;
80758;SDS011;70150;45.582;10.178;2023-08-31T03:01:33;3.25;;;1.20;;
80758;SDS011;70150;45.582;10.178;2023-08-31T03:06:25;2.53;;;1.05;;
80758;SDS011;70150;45.582;10.178;2023-08-31T03:08:51;4.78;;;1.20;;
80758;SDS011;70150;45.582;10.178;2023-08-31T03:11:17;2.22;;;0.80;;
80758;SDS011;70150;45.582;10.178;2023-08-31T03:13:42;2.20;;;1.08;;
80758;SDS011;70150;45.582;10.178;2023-08-31T03:16:08;2.33;;;1.00;;
80758;SDS011;70150;45.582;10.178;2023-08-31T03:18:34;2.42;;;0.98;;
80758;SDS011;70150;45.582;10.178;2023-08-31T03:21:00;3.22;;;1.00;;
80758;SDS011;70150;45.582;10.178;2023-08-31T03:23:27;1.92;;;0.98;;
80758;SDS011;70150;45.582;10.178;2023-08-31T03:25:54;2.03;;;0.93;;
80758;SDS011;70150;45.582;10.178;2023-08-31T03:28:20;1.88;;;1.00;;
80758;SDS011;70150;45.582;10.178;2023-08-31T03:30:46;4.22;;;1.02;;
80758;SDS011;70150;45.582;10.178;2023-08-31T03:33:20;2.95;;;1.27;;
80758;SDS011;70150;45.582;10.178;2023-08-31T03:35:46;2.90;;;1.10;;
80758;SDS011;70150;45.582;10.178;2023-08-31T03:38:12;3.00;;;1.20;;
80758;SDS011;70150;45.582;10.178;2023-08-31T03:40:38;7.88;;;1.13;;
80758;SDS011;70150;45.582;10.178;2023-08-31T03:43:04;3.33;;;1.27;;
80758;SDS011;70150;45.582;10.178;2023-08-31T03:45:30;3.08;;;1.27;;
80758;SDS011;70150;45.582;10.178;2023-08-31T03:47:56;2.63;;;1.20;;
80758;SDS011;70150;45.582;10.178;2023-08-31T03:50:22;3.83;;;1.23;;
80758;SDS011;70150;45.582;10.178;2023-08-31T03:52:48;4.10;;;1.05;;
80758;SDS011;70150;45.582;10.178;2023-08-31T03:55:14;5.32;;;1.30;;
80758;SDS011;70150;45.582;10.178;2023-08-31T03:57:40;6.18;;;1.48;;
80758;SDS011;70150;45.582;10.178;2023-08-31T04:00:08;3.30;;;1.40;;
80758;SDS011;70150;45.582;10.178;2023-08-31T04:02:35;3.25;;;1.42;;
80758;SDS011;70150;45.582;10.178;2023-08-31T04:05:03;6.38;;;1.40;;
80758;SDS011;70150;45.582;10.178;2023-08-31T04:07:31;1.42;;;1.10;;
80758;SDS011;70150;45.582;10.178;2023-08-31T04:09:59;2.85;;;1.30;;
80758;SDS011;70150;45.582;10.178;2023-08-31T04:12:24;3.67;;;1.60;;
80758;SDS011;70150;45.582;10.178;2023-08-31T04:14:50;3.67;;;1.73;;
80758;SDS011;70150;45.582;10.178;2023-08-31T04:17:16;2.80;;;1.50;;
80758;SDS011;70150;45.582;10.178;2023-08-31T04:19:42;3.40;;;1.55;;
80758;SDS011;70150;45.582;10.178;2023-08-31T04:22:07;4.18;;;1.50;;
80758;SDS011;70150;45.582;10.178;2023-08-31T04:24:33;2.80;;;1.55;;
80758;SDS011;70150;45.582;10.178;2023-08-31T04:27:00;5.07;;;1.15;;
80758;SDS011;70150;45.582;10.178;2023-08-31T04:29:25;4.50;;;1.70;;
80758;SDS011;70150;45.582;10.178;2023-08-31T04:31:51;4.70;;;1.50;;
80758;SDS011;70150;45.582;10.178;2023-08-31T04:34:18;5.05;;;1.73;;
80758;SDS011;70150;45.582;10.178;2023-08-31T04:36:44;3.47;;;1.50;;
80758;SDS011;70150;45.582;10.178;2023-08-31T04:39:09;4.15;;;1.33;;
80758;SDS011;70150;45.582;10.178;2023-08-31T04:41:36;3.55;;;1.52;;
80758;SDS011;70150;45.582;10.178;2023-08-31T04:44:03;4.60;;;1.45;;
80758;SDS011;70150;45.582;10.178;2023-08-31T04:46:28;3.00;;;1.40;;
80758;SDS011;70150;45.582;10.178;2023-08-31T04:48:54;2.65;;;1.45;;
80758;SDS011;70150;45.582;10.178;2023-08-31T04:53:53;3.13;;;1.60;;
80758;SDS011;70150;45.582;10.178;2023-08-31T04:56:19;3.47;;;1.38;;
80758;SDS011;70150;45.582;10.178;2023-08-31T04:58:45;4.40;;;1.50;;
80758;SDS011;70150;45.582;10.178;2023-08-31T05:01:11;3.85;;;1.40;;
80758;SDS011;70150;45.582;10.178;2023-08-31T05:03:36;2.35;;;1.30;;
80758;SDS011;70150;45.582;10.178;2023-08-31T05:06:02;5.15;;;1.70;;
80758;SDS011;70150;45.582;10.178;2023-08-31T05:08:29;2.25;;;1.30;;
80758;SDS011;70150;45.582;10.178;2023-08-31T05:10:55;4.18;;;1.20;;
80758;SDS011;70150;45.582;10.178;2023-08-31T05:13:22;4.28;;;1.52;;
80758;SDS011;70150;45.582;10.178;2023-08-31T05:15:48;3.42;;;1.65;;
80758;SDS011;70150;45.582;10.178;2023-08-31T05:18:13;5.18;;;1.45;;
80758;SDS011;70150;45.582;10.178;2023-08-31T05:20:39;3.33;;;1.25;;
80758;SDS011;70150;45.582;10.178;2023-08-31T05:23:10;4.85;;;1.40;;
80758;SDS011;70150;45.582;10.178;2023-08-31T05:25:36;2.15;;;1.52;;
80758;SDS011;70150;45.582;10.178;2023-08-31T05:28:07;3.15;;;1.33;;
80758;SDS011;70150;45.582;10.178;2023-08-31T05:30:33;2.55;;;1.00;;
80758;SDS011;70150;45.582;10.178;2023-08-31T05:33:00;4.28;;;1.20;;
80758;SDS011;70150;45.582;10.178;2023-08-31T05:35:26;1.90;;;1.20;;
80758;SDS011;70150;45.582;10.178;2023-08-31T05:37:52;2.50;;;1.20;;
80758;SDS011;70150;45.582;10.178;2023-08-31T05:40:17;2.00;;;0.93;;
80758;SDS011;70150;45.582;10.178;2023-08-31T05:42:44;2.88;;;1.33;;
80758;SDS011;70150;45.582;10.178;2023-08-31T05:45:09;4.03;;;1.48;;
80758;SDS011;70150;45.582;10.178;2023-08-31T05:47:36;4.50;;;1.65;;
80758;SDS011;70150;45.582;10.178;2023-08-31T05:50:02;2.58;;;1.60;;
80758;SDS011;70150;45.582;10.178;2023-08-31T05:52:28;2.85;;;1.30;;
80758;SDS011;70150;45.582;10.178;2023-08-31T05:54:54;3.75;;;1.77;;
80758;SDS011;70150;45.582;10.178;2023-08-31T05:57:19;5.20;;;1.40;;
80758;SDS011;70150;45.582;10.178;2023-08-31T05:59:47;3.72;;;1.40;;
80758;SDS011;70150;45.582;10.178;2023-08-31T06:02:13;3.17;;;1.17;;
80758;SDS011;70150;45.582;10.178;2023-08-31T06:04:39;5.07;;;1.27;;
80758;SDS011;70150;45.582;10.178;2023-08-31T06:07:05;4.32;;;1.48;;
80758;SDS011;70150;45.582;10.178;2023-08-31T06:09:35;4.00;;;1.20;;
80758;SDS011;70150;45.582;10.178;2023-08-31T06:12:03;4.00;;;1.30;;
80758;SDS011;70150;45.582;10.178;2023-08-31T06:14:30;2.03;;;1.10;;
80758;SDS011;70150;45.582;10.178;2023-08-31T06:16:55;2.83;;;1.20;;
80758;SDS011;70150;45.582;10.178;2023-08-31T06:19:21;2.45;;;1.20;;
80758;SDS011;70150;45.582;10.178;2023-08-31T06:21:47;2.65;;;1.20;;
80758;SDS011;70150;45.582;10.178;2023-08-31T06:24:13;3.60;;;1.33;;
80758;SDS011;70150;45.582;10.178;2023-08-31T06:26:39;4.30;;;1.23;;
80758;SDS011;70150;45.582;10.178;2023-08-31T06:29:06;4.05;;;1.10;;
80758;SDS011;70150;45.582;10.178;2023-08-31T06:31:35;2.42;;;1.40;;
80758;SDS011;70150;45.582;10.178;2023-08-31T06:34:01;2.17;;;1.05;;
80758;SDS011;70150;45.582;10.178;2023-08-31T06:36:30;4.20;;;1.00;;
80758;SDS011;70150;45.582;10.178;2023-08-31T06:38:56;3.13;;;1.42;;
80758;SDS011;70150;45.582;10.178;2023-08-31T06:41:21;1.73;;;1.13;;
80758;SDS011;70150;45.582;10.178;2023-08-31T06:43:47;1.38;;;0.93;;
80758;SDS011;70150;45.582;10.178;2023-08-31T06:46:13;3.83;;;1.30;;
80758;SDS011;70150;45.582;10.178;2023-08-31T06:48:39;5.90;;;1.42;;
80758;SDS011;70150;45.582;10.178;2023-08-31T06:51:05;3.75;;;0.90;;
80758;SDS011;70150;45.582;10.178;2023-08-31T06:53:32;2.60;;;0.90;;
80758;SDS011;70150;45.582;10.178;2023-08-31T06:55:58;3.20;;;1.08;;
80758;SDS011;70150;45.582;10.178;2023-08-31T06:58:24;2.70;;;1.20;;
80758;SDS011;70150;45.582;10.178;2023-08-31T07:00:49;2.97;;;1.17;;
80758;SDS011;70150;45.582;10.178;2023-08-31T07:03:15;7.70;;;1.80;;
80758;SDS011;70150;45.582;10.178;2023-08-31T07:05:41;2.92;;;1.30;;
80758;SDS011;70150;45.582;10.178;2023-08-31T07:08:08;4.45;;;1.60;;
80758;SDS011;70150;45.582;10.178;2023-08-31T07:10:35;2.13;;;1.33;;
80758;SDS011;70150;45.582;10.178;2023-08-31T07:13:04;4.82;;;1.40;;
80758;SDS011;70150;45.582;10.178;2023-08-31T07:15:30;3.20;;;1.15;;
80758;SDS011;70150;45.582;10.178;2023-08-31T07:17:56;4.00;;;1.40;;
80758;SDS011;70150;45.582;10.178;2023-08-31T07:20:22;2.97;;;1.10;;
80758;SDS011;70150;45.582;10.178;2023-08-31T07:22:48;2.60;;;1.20;;
80758;SDS011;70150;45.582;10.178;2023-08-31T07:25:14;3.60;;;1.25;;
80758;SDS011;70150;45.582;10.178;2023-08-31T07:27:39;3.03;;;1.10;;
80758;SDS011;70150;45.582;10.178;2023-08-31T07:30:05;4.53;;;1.33;;
80758;SDS011;70150;45.582;10.178;2023-08-31T07:32:32;3.05;;;1.40;;
80758;SDS011;70150;45.582;10.178;2023-08-31T07:34:58;3.38;;;1.40;;
80758;SDS011;70150;45.582;10.178;2023-08-31T07:37:23;3.53;;;1.60;;
80758;SDS011;70150;45.582;10.178;2023-08-31T07:39:49;3.63;;;1.27;;
80758;SDS011;70150;45.582;10.178;2023-08-31T07:42:15;1.92;;;1.55;;
80758;SDS011;70150;45.582;10.178;2023-08-31T07:44:41;2.25;;;1.20;;
80758;SDS011;70150;45.582;10.178;2023-08-31T07:47:09;3.63;;;1.25;;
80758;SDS011;70150;45.582;10.178;2023-08-31T07:49:35;2.88;;;1.20;;
80758;SDS011;70150;45.582;10.178;2023-08-31T07:52:01;3.10;;;1.40;;
80758;SDS011;70150;45.582;10.178;2023-08-31T07:54:28;4.10;;;1.40;;
80758;SDS011;70150;45.582;10.178;2023-08-31T07:56:53;3.30;;;1.23;;
80758;SDS011;70150;45.582;10.178;2023-08-31T07:59:20;2.90;;;1.45;;
80758;SDS011;70150;45.582;10.178;2023-08-31T08:01:47;1.77;;;1.15;;
80758;SDS011;70150;45.582;10.178;2023-08-31T08:04:13;3.00;;;1.40;;
80758;SDS011;70150;45.582;10.178;2023-08-31T08:06:38;4.05;;;1.48;;
80758;SDS011;70150;45.582;10.178;2023-08-31T08:09:04;2.55;;;1.40;;
80758;SDS011;70150;45.582;10.178;2023-08-31T08:11:31;2.03;;;1.30;;
80758;SDS011;70150;45.582;10.178;2023-08-31T08:13:57;4.38;;;1.80;;
80758;SDS011;70150;45.582;10.178;2023-08-31T08:16:22;5.57;;;1.75;;
80758;SDS011;70150;45.582;10.178;2023-08-31T08:18:49;4.07;;;1.83;;
80758;SDS011;70150;45.582;10.178;2023-08-31T08:21:15;2.58;;;1.40;;
80758;SDS011;70150;45.582;10.178;2023-08-31T08:23:41;3.92;;;1.60;;
80758;SDS011;70150;45.582;10.178;2023-08-31T08:26:06;3.05;;;1.40;;
80758;SDS011;70150;45.582;10.178;2023-08-31T08:28:32;4.38;;;1.63;;
80758;SDS011;70150;45.582;10.178;2023-08-31T08:31:00;3.35;;;1.50;;
80758;SDS011;70150;45.582;10.178;2023-08-31T08:33:28;4.00;;;1.50;;
80758;SDS011;70150;45.582;10.178;2023-08-31T08:35:56;5.63;;;1.52;;
80758;SDS011;70150;45.582;10.178;2023-08-31T08:38:24;6.13;;;1.80;;
80758;SDS011;70150;45.582;10.178;2023-08-31T08:40:51;7.90;;;2.05;;
80758;SDS011;70150;45.582;10.178;2023-08-31T08:43:16;3.30;;;1.65;;
80758;SDS011;70150;45.582;10.178;2023-08-31T08:45:52;7.28;;;1.90;;
80758;SDS011;70150;45.582;10.178;2023-08-31T08:48:19;4.85;;;1.40;;
80758;SDS011;70150;45.582;10.178;2023-08-31T08:50:46;3.30;;;1.50;;
80758;SDS011;70150;45.582;10.178;2023-08-31T08:53:11;3.47;;;1.60;;
80758;SDS011;70150;45.582;10.178;2023-08-31T08:55:41;4.78;;;1.80;;
80758;SDS011;70150;45.582;10.178;2023-08-31T08:58:10;4.35;;;1.80;;
80758;SDS011;70150;45.582;10.178;2023-08-31T09:00:36;3.05;;;1.60;;
80758;SDS011;70150;45.582;10.178;2023-08-31T09:05:31;3.42;;;1.52;;
80758;SDS011;70150;45.582;10.178;2023-08-31T09:13:00;6.22;;;2.10;;
80758;SDS011;70150;45.582;10.178;2023-08-31T09:15:35;3.88;;;1.67;;
80758;SDS011;70150;45.582;10.178;2023-08-31T09:18:02;4.72;;;1.48;;
80758;SDS011;70150;45.582;10.178;2023-08-31T09:20:28;5.45;;;1.30;;
80758;SDS011;70150;45.582;10.178;2023-08-31T09:22:55;3.60;;;1.30;;
80758;SDS011;70150;45.582;10.178;2023-08-31T09:25:21;5.15;;;1.67;;
80758;SDS011;70150;45.582;10.178;2023-08-31T09:27:47;7.35;;;2.00;;
80758;SDS011;70150;45.582;10.178;2023-08-31T09:30:13;5.13;;;1.50;;
80758;SDS011;70150;45.582;10.178;2023-08-31T09:32:39;4.00;;;1.35;;
80758;SDS011;70150;45.582;10.178;2023-08-31T09:35:08;5.32;;;1.70;;
80758;SDS011;70150;45.582;10.178;2023-08-31T09:37:34;5.13;;;1.60;;
80758;SDS011;70150;45.582;10.178;2023-08-31T09:45:01;5.50;;;3.03;;
80758;SDS011;70150;45.582;10.178;2023-08-31T09:47:28;6.82;;;1.80;;
80758;SDS011;70150;45.582;10.178;2023-08-31T09:49:56;2.58;;;1.75;;
80758;SDS011;70150;45.582;10.178;2023-08-31T09:52:23;3.30;;;1.27;;
80758;SDS011;70150;45.582;10.178;2023-08-31T09:54:50;4.38;;;1.75;;
80758;SDS011;70150;45.582;10.178;2023-08-31T09:57:18;2.47;;;1.40;;
80758;SDS011;70150;45.582;10.178;2023-08-31T09:59:45;4.35;;;1.40;;
80758;SDS011;70150;45.582;10.178;2023-08-31T10:02:11;4.30;;;1.30;;
80758;SDS011;70150;45.582;10.178;2023-08-31T10:04:40;3.10;;;1.48;;
80758;SDS011;70150;45.582;10.178;2023-08-31T10:07:08;6.10;;;1.85;;
80758;SDS011;70150;45.582;10.178;2023-08-31T10:09:36;4.20;;;2.13;;
80758;SDS011;70150;45.582;10.178;2023-08-31T10:12:04;4.40;;;1.73;;
80758;SDS011;70150;45.582;10.178;2023-08-31T10:14:31;3.88;;;1.75;;
80758;SDS011;70150;45.582;10.178;2023-08-31T10:16:57;5.55;;;1.77;;
80758;SDS011;70150;45.582;10.178;2023-08-31T10:19:25;6.65;;;2.40;;
80758;SDS011;70150;45.582;10.178;2023-08-31T10:21:51;5.20;;;2.53;;
80758;SDS011;70150;45.582;10.178;2023-08-31T10:24:17;4.22;;;2.45;;
80758;SDS011;70150;45.582;10.178;2023-08-31T10:26:42;3.50;;;2.03;;
80758;SDS011;70150;45.582;10.178;2023-08-31T10:29:08;4.25;;;2.20;;
80758;SDS011;70150;45.582;10.178;2023-08-31T10:31:52;4.38;;;1.83;;
80758;SDS011;70150;45.582;10.178;2023-08-31T10:34:18;4.55;;;2.10;;
80758;SDS011;70150;45.582;10.178;2023-08-31T10:37:02;5.32;;;1.75;;
80758;SDS011;70150;45.582;10.178;2023-08-31T10:39:44;4.10;;;1.80;;
80758;SDS011;70150;45.582;10.178;2023-08-31T10:42:09;5.85;;;2.00;;
80758;SDS011;70150;45.582;10.178;2023-08-31T10:44:36;5.55;;;1.75;;
80758;SDS011;70150;45.582;10.178;2023-08-31T10:47:03;6.95;;;2.10;;
80758;SDS011;70150;45.582;10.178;2023-08-31T10:49:29;6.15;;;1.80;;
80758;SDS011;70150;45.582;10.178;2023-08-31T10:54:37;5.43;;;2.10;;
80758;SDS011;70150;45.582;10.178;2023-08-31T10:57:03;6.85;;;2.15;;
80758;SDS011;70150;45.582;10.178;2023-08-31T11:02:03;4.65;;;1.95;;
80758;SDS011;70150;45.582;10.178;2023-08-31T11:04:29;5.65;;;1.88;;
80758;SDS011;70150;45.582;10.178;2023-08-31T11:09:30;5.25;;;1.80;;
80758;SDS011;70150;45.582;10.178;2023-08-31T11:11:56;4.88;;;1.77;;
80758;SDS011;70150;45.582;10.178;2023-08-31T11:14:22;6.60;;;2.08;;
80758;SDS011;70150;45.582;10.178;2023-08-31T11:16:47;6.78;;;2.30;;
80758;SDS011;70150;45.582;10.178;2023-08-31T11:19:13;6.18;;;2.25;;
80758;SDS011;70150;45.582;10.178;2023-08-31T11:21:38;7.50;;;2.50;;
80758;SDS011;70150;45.582;10.178;2023-08-31T11:24:04;5.07;;;2.83;;
80758;SDS011;70150;45.582;10.178;2023-08-31T11:26:31;6.97;;;2.00;;
80758;SDS011;70150;45.582;10.178;2023-08-31T11:28:57;4.88;;;2.33;;
80758;SDS011;70150;45.582;10.178;2023-08-31T11:31:23;6.13;;;2.40;;
80758;SDS011;70150;45.582;10.178;2023-08-31T11:33:49;7.50;;;1.80;;
80758;SDS011;70150;45.582;10.178;2023-08-31T11:36:15;6.13;;;2.40;;
80758;SDS011;70150;45.582;10.178;2023-08-31T11:38:44;6.65;;;2.58;;
80758;SDS011;70150;45.582;10.178;2023-08-31T11:41:09;3.83;;;2.50;;
80758;SDS011;70150;45.582;10.178;2023-08-31T11:43:37;6.53;;;2.58;;
80758;SDS011;70150;45.582;10.178;2023-08-31T11:46:03;2.85;;;1.80;;
80758;SDS011;70150;45.582;10.178;2023-08-31T11:48:31;6.35;;;2.20;;
80758;SDS011;70150;45.582;10.178;2023-08-31T11:50:57;6.63;;;2.30;;
80758;SDS011;70150;45.582;10.178;2023-08-31T11:53:23;5.05;;;2.20;;
80758;SDS011;70150;45.582;10.178;2023-08-31T11:55:50;5.45;;;2.35;;
80758;SDS011;70150;45.582;10.178;2023-08-31T11:58:17;6.53;;;2.50;;
80758;SDS011;70150;45.582;10.178;2023-08-31T12:00:43;5.35;;;2.28;;
80758;SDS011;70150;45.582;10.178;2023-08-31T12:08:11;6.57;;;2.25;;
80758;SDS011;70150;45.582;10.178;2023-08-31T12:13:08;4.38;;;1.70;;
80758;SDS011;70150;45.582;10.178;2023-08-31T12:15:34;6.32;;;2.38;;
80758;SDS011;70150;45.582;10.178;2023-08-31T12:20:32;7.45;;;2.58;;
80758;SDS011;70150;45.582;10.178;2023-08-31T12:23:07;5.90;;;2.15;;
80758;SDS011;70150;45.582;10.178;2023-08-31T12:25:34;9.43;;;2.72;;
80758;SDS011;70150;45.582;10.178;2023-08-31T12:28:00;5.93;;;2.25;;
80758;SDS011;70150;45.582;10.178;2023-08-31T12:30:27;6.75;;;2.45;;
80758;SDS011;70150;45.582;10.178;2023-08-31T12:32:53;5.38;;;2.15;;
80758;SDS011;70150;45.582;10.178;2023-08-31T12:35:19;4.90;;;2.00;;
80758;SDS011;70150;45.582;10.178;2023-08-31T12:37:45;7.47;;;1.80;;
80758;SDS011;70150;45.582;10.178;2023-08-31T12:40:11;4.70;;;1.95;;
80758;SDS011;70150;45.582;10.178;2023-08-31T12:42:37;7.22;;;2.33;;
80758;SDS011;70150;45.582;10.178;2023-08-31T12:45:02;5.65;;;2.53;;
80758;SDS011;70150;45.582;10.178;2023-08-31T12:47:30;5.72;;;1.83;;
80758;SDS011;70150;45.582;10.178;2023-08-31T12:49:56;4.72;;;2.05;;
80758;SDS011;70150;45.582;10.178;2023-08-31T12:52:24;4.45;;;1.70;;
80758;SDS011;70150;45.582;10.178;2023-08-31T12:54:49;5.50;;;1.92;;
80758;SDS011;70150;45.582;10.178;2023-08-31T12:57:15;6.43;;;1.85;;
80758;SDS011;70150;45.582;10.178;2023-08-31T12:59:41;7.93;;;1.95;;
80758;SDS011;70150;45.582;10.178;2023-08-31T13:02:07;5.65;;;1.90;;
80758;SDS011;70150;45.582;10.178;2023-08-31T13:04:35;5.28;;;1.95;;
80758;SDS011;70150;45.582;10.178;2023-08-31T13:07:01;5.88;;;2.42;;
80758;SDS011;70150;45.582;10.178;2023-08-31T13:09:28;4.15;;;1.80;;
80758;SDS011;70150;45.582;10.178;2023-08-31T13:11:54;5.60;;;2.28;;
80758;SDS011;70150;45.582;10.178;2023-08-31T13:14:20;8.52;;;1.83;;
80758;SDS011;70150;45.582;10.178;2023-08-31T13:16:45;5.32;;;1.88;;
80758;SDS011;70150;45.582;10.178;2023-08-31T13:19:11;5.22;;;1.77;;
80758;SDS011;70150;45.582;10.178;2023-08-31T13:21:37;4.50;;;1.70;;
80758;SDS011;70150;45.582;10.178;2023-08-31T13:24:03;6.25;;;1.70;;
80758;SDS011;70150;45.582;10.178;2023-08-31T13:26:29;3.75;;;1.80;;
80758;SDS011;70150;45.582;10.178;2023-08-31T13:28:54;6.40;;;1.65;;
80758;SDS011;70150;45.582;10.178;2023-08-31T13:31:20;3.67;;;1.90;;
80758;SDS011;70150;45.582;10.178;2023-08-31T13:33:46;5.47;;;1.67;;
80758;SDS011;70150;45.582;10.178;2023-08-31T13:36:12;5.65;;;2.15;;
80758;SDS011;70150;45.582;10.178;2023-08-31T13:38:37;5.63;;;1.85;;
80758;SDS011;70150;45.582;10.178;2023-08-31T13:41:03;7.30;;;2.33;;
80758;SDS011;70150;45.582;10.178;2023-08-31T13:43:29;5.32;;;2.45;;
80758;SDS011;70150;45.582;10.178;2023-08-31T13:45:55;3.83;;;1.80;;
80758;SDS011;70150;45.582;10.178;2023-08-31T13:48:20;7.78;;;2.10;;
80758;SDS011;70150;45.582;10.178;2023-08-31T13:50:47;5.10;;;1.40;;
80758;SDS011;70150;45.582;10.178;2023-08-31T13:53:13;2.13;;;1.23;;
80758;SDS011;70150;45.582;10.178;2023-08-31T13:55:39;2.90;;;1.45;;
80758;SDS011;70150;45.582;10.178;2023-08-31T13:58:05;7.13;;;1.90;;
80758;SDS011;70150;45.582;10.178;2023-08-31T14:00:32;3.53;;;1.20;;
80758;SDS011;70150;45.582;10.178;2023-08-31T14:05:28;3.83;;;1.70;;
80758;SDS011;70150;45.582;10.178;2023-08-31T14:07:55;4.07;;;1.52;;
80758;SDS011;70150;45.582;10.178;2023-08-31T14:10:24;3.95;;;1.80;;
80758;SDS011;70150;45.582;10.178;2023-08-31T14:12:50;5.10;;;1.60;;
80758;SDS011;70150;45.582;10.178;2023-08-31T14:15:16;3.55;;;1.60;;
80758;SDS011;70150;45.582;10.178;2023-08-31T14:17:41;8.68;;;2.20;;
80758;SDS011;70150;45.582;10.178;2023-08-31T14:20:07;4.47;;;2.10;;
80758;SDS011;70150;45.582;10.178;2023-08-31T14:22:35;5.70;;;1.95;;
80758;SDS011;70150;45.582;10.178;2023-08-31T14:25:01;6.50;;;1.88;;
80758;SDS011;70150;45.582;10.178;2023-08-31T14:27:28;5.30;;;1.75;;
80758;SDS011;70150;45.582;10.178;2023-08-31T14:32:21;5.88;;;2.15;;
80758;SDS011;70150;45.582;10.178;2023-08-31T14:34:47;6.60;;;2.28;;
80758;SDS011;70150;45.582;10.178;2023-08-31T14:37:13;6.50;;;1.80;;
80758;SDS011;70150;45.582;10.178;2023-08-31T14:39:38;4.00;;;1.50;;
80758;SDS011;70150;45.582;10.178;2023-08-31T14:42:04;3.90;;;1.40;;
80758;SDS011;70150;45.582;10.178;2023-08-31T14:44:30;6.00;;;1.50;;
80758;SDS011;70150;45.582;10.178;2023-08-31T14:46:55;4.85;;;1.50;;
80758;SDS011;70150;45.582;10.178;2023-08-31T14:49:22;5.68;;;1.50;;
80758;SDS011;70150;45.582;10.178;2023-08-31T14:51:50;4.03;;;1.30;;
80758;SDS011;70150;45.582;10.178;2023-08-31T14:54:15;8.32;;;1.92;;
80758;SDS011;70150;45.582;10.178;2023-08-31T14:56:41;2.70;;;1.20;;
80758;SDS011;70150;45.582;10.178;2023-08-31T14:59:06;3.30;;;1.42;;
80758;SDS011;70150;45.582;10.178;2023-08-31T15:01:32;2.95;;;1.20;;
80758;SDS011;70150;45.582;10.178;2023-08-31T15:03:58;4.75;;;1.95;;
80758;SDS011;70150;45.582;10.178;2023-08-31T15:06:23;5.10;;;1.60;;
80758;SDS011;70150;45.582;10.178;2023-08-31T15:08:49;4.07;;;1.52;;
80758;SDS011;70150;45.582;10.178;2023-08-31T15:11:15;2.85;;;1.20;;
80758;SDS011;70150;45.582;10.178;2023-08-31T15:13:40;7.18;;;1.75;;
80758;SDS011;70150;45.582;10.178;2023-08-31T15:16:06;3.58;;;1.25;;
80758;SDS011;70150;45.582;10.178;2023-08-31T15:18:32;6.45;;;1.70;;
80758;SDS011;70150;45.582;10.178;2023-08-31T15:20:58;2.35;;;0.93;;
80758;SDS011;70150;45.582;10.178;2023-08-31T15:23:23;3.65;;;1.20;;